.
WxDataArchive / Data Records for 2009-02-26
2009-02-25 February 2009 2009-02-27

Data Records for Thursday, 26 February 2009

Time	Temp	Chill	HIndex	Humid	Dewpt	 Wind 	HiWind	WindDir	Rain 	Barom 
-----	----	-----	------	-----	-----	------	------	-------	-----	----- 
00:00	45.1	45.1	45.1	85	40.9	1	4	248	0.00	30.102 
00:05	45.1	45.1	45.1	85	40.9	1	4	248	0.00	30.103 
00:10	44.9	44.9	44.9	85	40.7	1	2	248	0.00	30.103 
00:15	44.9	44.9	44.9	86	41.0	1	5	248	0.00	30.105 
00:20	45.1	45.1	45.1	86	41.2	1	5	248	0.00	30.106 
00:25	45.2	45.2	45.2	86	41.3	2	5	270	0.00	30.106 
00:30	45.2	45.2	45.2	86	41.3	1	6	248	0.00	30.110 
00:35	45.4	45.4	45.4	86	41.5	2	6	248	0.00	30.110 
00:40	45.4	45.4	45.4	86	41.5	2	6	270	0.00	30.112 
00:45	45.5	45.5	45.5	86	41.6	2	7	248	0.00	30.115 
00:50	45.5	45.5	45.5	86	41.6	2	6	248	0.00	30.116 
00:55	45.5	45.5	45.5	86	41.6	3	7	248	0.00	30.118 
01:00	45.7	45.7	45.7	86	41.8	2	6	248	0.00	30.119 
01:05	45.7	45.7	45.7	86	41.8	3	7	248	0.00	30.118 
01:10	45.7	45.7	45.7	86	41.8	3	9	248	0.00	30.118 
01:15	45.7	45.7	45.7	86	41.8	2	7	248	0.00	30.119 
01:20	45.7	45.7	45.7	86	41.8	3	8	248	0.00	30.120 
01:25	45.5	45.5	45.5	86	41.6	2	6	248	0.00	30.120 
01:30	45.5	45.5	45.5	87	41.9	2	6	248	0.00	30.121 
01:35	45.5	45.5	45.5	87	41.9	3	11	248	0.00	30.122 
01:40	45.5	45.5	45.5	88	42.2	2	7	248	0.00	30.123 
01:45	45.4	45.4	45.4	88	42.1	1	4	248	0.00	30.129 
01:50	45.4	45.4	45.4	88	42.1	1	5	248	0.00	30.131 
01:55	45.4	45.4	45.4	88	42.1	2	7	248	0.00	30.133 
02:00	45.4	45.4	45.4	89	42.3	3	7	248	0.00	30.135 
02:05	45.4	45.4	45.4	89	42.3	2	5	248	0.00	30.133 
02:10	45.4	45.4	45.4	89	42.3	3	10	248	0.00	30.134 
02:15	45.4	45.4	45.4	89	42.3	2	7	248	0.00	30.135 
02:20	45.4	45.4	45.4	89	42.3	2	7	248	0.00	30.134 
02:25	45.2	45.2	45.2	90	42.4	2	6	248	0.00	30.135 
02:30	45.2	45.2	45.2	90	42.4	1	6	248	0.00	30.139 
02:35	45.2	45.2	45.2	90	42.4	2	6	270	0.00	30.140 
02:40	45.2	45.2	45.2	90	42.4	1	6	248	0.00	30.139 
02:45	45.1	45.1	45.1	90	42.3	1	4	248	0.00	30.141 
02:50	45.1	45.1	45.1	90	42.3	2	6	248	0.00	30.141 
02:55	44.9	44.9	44.9	90	42.1	2	7	248	0.00	30.141 
03:00	44.9	44.9	44.9	90	42.1	1	4	248	0.00	30.140 
03:05	44.8	44.8	44.8	90	42.0	2	4	248	0.00	30.140 
03:10	44.8	44.8	44.8	90	42.0	2	6	248	0.00	30.144 
03:15	44.6	44.6	44.6	90	41.9	1	5	248	0.00	30.145 
03:20	44.6	44.6	44.6	90	41.9	1	5	248	0.00	30.145 
03:25	44.5	44.5	44.5	90	41.8	1	3	248	0.00	30.145 
03:30	44.3	44.3	44.3	91	41.8	2	5	248	0.00	30.142 
03:35	44.2	44.2	44.2	91	41.7	2	4	270	0.00	30.141 
03:40	44.2	44.2	44.2	91	41.7	1	5	270	0.00	30.142 
03:45	44.1	44.1	44.1	91	41.6	1	3	248	0.00	30.141 
03:50	43.9	43.9	43.9	91	41.4	1	4	270	0.00	30.145 
03:55	43.9	43.9	43.9	91	41.4	1	2	270	0.00	30.145 
04:00	43.8	43.8	43.8	91	41.3	1	3	270	0.00	30.145 
04:05	43.8	43.8	43.8	91	41.3	2	7	248	0.00	30.147 
04:10	43.6	43.6	43.6	91	41.1	0	2	248	0.00	30.143 
04:15	43.5	43.5	43.5	91	41.0	1	5	248	0.00	30.144 
04:20	43.3	43.3	43.3	91	40.9	0	2	248	0.00	30.145 
04:25	43.3	43.3	43.3	91	40.9	0	1	248	0.00	30.148 
04:30	43.2	43.2	43.2	91	40.8	0	1	248	0.00	30.149 
04:35	43.1	43.1	43.1	91	40.7	0	1	248	0.00	30.150 
04:40	43.1	43.1	43.1	92	40.9	0	2	248	0.00	30.151 
04:45	43.1	43.1	43.1	92	40.9	0	1	248	0.00	30.151 
04:50	42.9	42.9	42.9	92	40.7	0	0	---	0.00	30.152 
04:55	42.9	42.9	42.9	92	40.7	0	1	248	0.00	30.152 
05:00	42.8	42.8	42.8	92	40.6	0	1	248	0.00	30.152 
05:05	42.8	42.8	42.8	92	40.6	0	1	248	0.00	30.154 
05:10	42.6	42.6	42.6	92	40.4	0	1	248	0.00	30.156 
05:15	42.5	42.5	42.5	92	40.3	0	0	---	0.00	30.159 
05:20	42.5	42.5	42.5	92	40.3	0	0	---	0.00	30.160 
05:25	42.5	42.5	42.5	92	40.3	0	1	248	0.00	30.158 
05:30	42.3	42.3	42.3	92	40.1	0	0	---	0.00	30.158 
05:35	42.3	42.3	42.3	92	40.1	0	1	248	0.00	30.161 
05:40	42.2	42.2	42.2	92	40.0	0	0	---	0.00	30.161 
05:45	42.2	42.2	42.2	92	40.0	0	0	---	0.00	30.162 
05:50	42.2	42.2	42.2	92	40.0	0	0	---	0.00	30.165 
05:55	42.1	42.1	42.1	92	39.9	0	0	---	0.00	30.164 
06:00	41.9	41.9	41.9	92	39.7	0	0	---	0.00	30.169 
06:05	41.8	41.8	41.8	92	39.6	0	0	---	0.00	30.172 
06:10	41.8	41.8	41.8	92	39.6	0	0	---	0.00	30.172 
06:15	41.6	41.6	41.6	92	39.5	0	0	---	0.00	30.171 
06:20	41.6	41.6	41.6	93	39.7	0	0	---	0.00	30.170 
06:25	41.6	41.6	41.6	93	39.7	0	0	---	0.00	30.170 
06:30	41.6	41.6	41.6	93	39.7	0	0	---	0.00	30.171 
06:35	41.6	41.6	41.6	93	39.7	0	0	---	0.00	30.171 
06:40	41.5	41.5	41.5	93	39.6	0	0	---	0.00	30.172 
06:45	41.3	41.3	41.3	93	39.4	0	0	---	0.00	30.173 
06:50	41.3	41.3	41.3	93	39.4	0	0	---	0.00	30.173 
06:55	41.2	41.2	41.2	93	39.3	0	0	---	0.00	30.172 
07:00	41.1	41.1	41.1	93	39.2	0	0	---	0.00	30.172 
07:05	41.1	41.1	41.1	93	39.2	0	0	---	0.00	30.173 
07:10	41.1	41.1	41.1	94	39.5	0	0	---	0.00	30.173 
07:15	41.1	41.1	41.1	94	39.5	0	0	---	0.00	30.173 
07:20	40.9	40.9	40.9	94	39.3	0	0	---	0.00	30.173 
07:25	40.9	40.9	40.9	94	39.3	0	1	248	0.00	30.171 
07:30	40.9	40.9	40.9	94	39.3	0	1	248	0.00	30.172 
07:35	40.9	40.9	40.9	94	39.3	0	1	248	0.00	30.172 
07:40	41.1	41.1	41.1	94	39.5	0	2	248	0.00	30.171 
07:45	41.1	41.1	41.1	95	39.8	0	2	248	0.00	30.171 
07:50	40.9	40.9	40.9	95	39.6	0	1	248	0.00	30.171 
07:55	40.9	40.9	40.9	95	39.6	0	1	248	0.00	30.172 
08:00	40.9	40.9	40.9	95	39.6	0	1	248	0.00	30.170 
08:05	40.8	40.8	40.8	95	39.5	0	2	248	0.00	30.170 
08:10	40.8	40.8	40.8	95	39.5	0	2	248	0.00	30.167 
08:15	40.8	40.8	40.8	95	39.5	0	1	248	0.00	30.167 
08:20	40.8	40.8	40.8	95	39.5	0	1	248	0.00	30.168 
08:25	40.8	40.8	40.8	95	39.5	0	1	248	0.00	30.166 
08:30	40.9	40.9	40.9	95	39.6	0	2	248	0.00	30.168 
08:35	40.9	40.9	40.9	96	39.8	1	2	90	0.00	30.166 
08:40	40.9	40.9	40.9	96	39.8	1	3	90	0.00	30.163 
08:45	40.8	40.8	40.8	96	39.7	1	3	90	0.00	30.160 
08:50	40.8	40.8	40.8	96	39.7	1	2	90	0.00	30.160 
08:55	40.8	40.8	40.8	96	39.7	1	2	90	0.00	30.159 
09:00	40.9	40.9	40.9	96	39.8	1	3	90	0.00	30.160 
09:05	41.1	41.1	41.1	96	40.0	1	2	90	0.00	30.163 
09:10	41.2	41.2	41.2	96	40.1	0	3	90	0.00	30.161 
09:15	41.3	41.3	41.3	96	40.2	1	2	90	0.00	30.160 
09:20	41.3	41.3	41.3	96	40.2	1	3	112	0.00	30.160 
09:25	41.3	41.3	41.3	96	40.2	0	2	112	0.00	30.160 
09:30	41.5	41.5	41.5	96	40.4	1	4	112	0.00	30.160 
09:35	41.5	41.5	41.5	96	40.4	1	2	112	0.00	30.160 
09:40	41.6	41.6	41.6	96	40.5	0	2	112	0.00	30.158 
09:45	41.8	41.8	41.8	96	40.7	1	3	112	0.00	30.156 
09:50	41.8	41.8	41.8	96	40.7	1	2	112	0.00	30.157 
09:55	41.9	41.9	41.9	96	40.8	1	4	112	0.00	30.156 
10:00	41.9	41.9	41.9	96	40.8	1	3	112	0.00	30.155 
10:05	42.1	42.1	42.1	96	41.0	0	2	112	0.00	30.152 
10:10	42.1	42.1	42.1	96	41.0	1	3	112	0.00	30.149 
10:15	42.1	42.1	42.1	96	41.0	2	4	112	0.00	30.145 
10:20	42.2	42.2	42.2	96	41.1	1	3	112	0.00	30.144 
10:25	42.3	42.3	42.3	97	41.5	1	3	112	0.00	30.142 
10:30	42.5	42.5	42.5	97	41.7	1	3	112	0.00	30.140 
10:35	42.5	42.5	42.5	97	41.7	2	4	112	0.00	30.136 
10:40	42.8	42.8	42.8	97	42.0	2	4	112	0.00	30.131 
10:45	43.1	43.1	43.1	97	42.3	2	6	112	0.00	30.131 
10:50	43.5	43.5	43.5	97	42.7	1	4	112	0.00	30.129 
10:55	43.6	43.6	43.6	97	42.8	3	4	112	0.00	30.128 
11:00	44.1	44.1	44.1	97	43.3	2	4	112	0.00	30.126 
11:05	44.3	44.3	44.3	97	43.5	2	5	112	0.00	30.125 
11:10	44.5	44.5	44.5	97	43.7	2	7	90	0.00	30.122 
11:15	44.8	44.8	44.8	97	44.0	2	6	90	0.00	30.122 
11:20	45.2	45.2	45.2	97	44.4	1	4	90	0.00	30.122 
11:25	45.7	45.7	45.7	97	44.9	2	5	135	0.00	30.119 
11:30	46.0	46.0	46.0	97	45.2	2	6	90	0.00	30.114 
11:35	46.4	46.4	46.4	97	45.6	3	7	112	0.00	30.112 
11:40	46.8	46.8	46.8	97	46.0	3	6	112	0.00	30.109 
11:45	47.0	47.0	47.0	97	46.2	3	10	90	0.00	30.111 
11:50	47.4	47.4	47.4	96	46.3	2	5	90	0.00	30.112 
11:55	47.6	47.6	47.6	96	46.5	2	4	90	0.00	30.113 
12:00	47.6	47.6	47.6	95	46.2	2	5	112	0.00	30.111 
12:05	47.6	47.6	47.6	94	46.0	3	7	112	0.00	30.107 
12:10	47.7	47.7	47.7	93	45.8	2	5	90	0.00	30.107 
12:15	48.0	48.0	48.0	92	45.8	2	4	90	0.00	30.106 
12:20	48.0	48.0	48.0	91	45.5	3	7	90	0.00	30.104 
12:25	48.3	48.3	48.3	90	45.5	2	5	90	0.00	30.101 
12:30	48.3	48.3	48.3	89	45.2	1	4	68	0.00	30.096 
12:35	48.5	48.5	48.5	89	45.4	2	3	112	0.00	30.093 
12:40	48.6	48.6	48.6	88	45.2	1	4	90	0.00	30.090 
12:45	48.6	48.6	48.6	88	45.2	2	4	112	0.00	30.085 
12:50	48.8	48.8	48.8	87	45.1	2	6	135	0.00	30.077 
12:55	48.9	48.9	48.9	87	45.2	1	4	112	0.00	30.075 
13:00	49.1	49.1	49.1	86	45.1	2	4	112	0.00	30.074 
13:05	49.1	49.1	49.1	85	44.8	2	5	90	0.00	30.072 
13:10	49.2	49.2	49.2	85	44.9	1	3	112	0.00	30.064 
13:15	49.4	49.4	49.4	85	45.1	2	4	45	0.00	30.058 
13:20	49.5	49.5	49.5	84	44.9	3	6	90	0.00	30.058 
13:25	49.6	49.6	49.6	83	44.7	2	6	112	0.00	30.055 
13:30	49.9	49.9	49.9	82	44.6	2	5	90	0.00	30.046 
13:35	49.9	49.9	49.9	82	44.6	3	6	90	0.00	30.044 
13:40	49.6	48.4	49.6	81	44.0	4	10	90	0.00	30.042 
13:45	49.6	49.6	49.6	81	44.0	3	7	112	0.00	30.040 
13:50	49.6	49.6	49.6	81	44.0	3	12	112	0.00	30.034 
13:55	49.6	49.6	49.6	80	43.7	3	10	90	0.00	30.030 
14:00	49.8	49.8	49.8	80	43.9	3	5	90	0.00	30.025 
14:05	49.8	49.8	49.8	80	43.9	2	5	90	0.00	30.024 
14:10	49.8	49.8	49.8	80	43.9	3	7	90	0.00	30.025 
14:15	49.8	48.6	49.8	80	43.9	4	10	90	0.00	30.018 
14:20	49.6	49.6	49.6	81	44.0	3	7	112	0.00	30.012 
14:25	49.5	49.5	49.5	81	43.9	3	6	112	0.00	30.011 
14:30	49.4	49.4	49.4	81	43.8	3	6	90	0.00	30.007 
14:35	49.2	49.2	49.2	82	43.9	2	5	90	0.00	30.008 
14:40	48.9	48.9	48.9	84	44.3	2	6	112	0.00	30.001 
14:45	48.8	48.8	48.8	84	44.2	1	4	112	0.00	29.996 
14:50	48.6	48.6	48.6	85	44.3	1	4	68	0.00	29.995 
14:55	48.3	48.3	48.3	87	44.6	2	4	112	0.01	29.993 
15:00	48.2	48.2	48.2	88	44.8	1	3	90	0.00	29.993 
15:05	48.0	48.0	48.0	89	44.9	1	3	158	0.00	29.992 
15:10	47.9	47.9	47.9	90	45.1	1	3	112	0.00	29.993 
15:15	47.7	47.7	47.7	90	44.9	1	3	112	0.00	29.994 
15:20	47.6	47.6	47.6	91	45.1	1	5	112	0.01	29.992 
15:25	47.4	47.4	47.4	91	44.9	1	3	90	0.00	29.988 
15:30	47.4	47.4	47.4	92	45.2	1	4	112	0.00	29.982 
15:35	47.3	47.3	47.3	92	45.1	2	6	112	0.00	29.975 
15:40	47.3	47.3	47.3	92	45.1	2	4	112	0.01	29.970 
15:45	47.1	47.1	47.1	93	45.2	2	5	112	0.00	29.967 
15:50	47.1	47.1	47.1	93	45.2	2	6	112	0.00	29.966 
15:55	47.1	47.1	47.1	93	45.2	1	4	112	0.00	29.962 
16:00	47.0	47.0	47.0	93	45.1	2	5	112	0.01	29.945 
16:05	47.0	47.0	47.0	94	45.4	2	5	90	0.01	29.951 
16:10	47.0	47.0	47.0	94	45.4	1	3	90	0.01	29.945 
16:15	47.0	47.0	47.0	94	45.4	2	3	90	0.00	29.937 
16:20	47.0	47.0	47.0	94	45.4	2	6	135	0.00	29.933 
16:25	47.0	47.0	47.0	94	45.4	2	6	112	0.00	29.924 
16:30	47.0	47.0	47.0	94	45.4	2	4	112	0.00	29.922 
16:35	47.0	47.0	47.0	95	45.6	3	11	112	0.00	29.914 
16:40	47.0	47.0	47.0	95	45.6	3	6	90	0.00	29.904 
16:45	47.0	47.0	47.0	95	45.6	3	7	112	0.00	29.902 
16:50	47.0	47.0	47.0	95	45.6	3	6	112	0.00	29.902 
16:55	46.8	46.8	46.8	95	45.4	2	6	112	0.00	29.891 
17:00	46.8	46.8	46.8	95	45.4	2	5	112	0.00	29.889 
17:05	46.8	46.8	46.8	95	45.4	3	6	112	0.00	29.889 
17:10	46.8	46.8	46.8	95	45.4	3	6	112	0.00	29.888 
17:15	46.8	46.8	46.8	95	45.4	2	6	90	0.00	29.884 
17:20	46.8	46.8	46.8	95	45.4	2	6	112	0.00	29.882 
17:25	46.8	46.8	46.8	95	45.4	2	6	90	0.00	29.883 
17:30	47.0	47.0	47.0	95	45.6	3	6	90	0.00	29.877 
17:35	47.1	47.1	47.1	95	45.7	3	6	112	0.00	29.875 
17:40	47.3	45.8	47.3	95	45.9	4	10	90	0.00	29.874 
17:45	47.4	47.4	47.4	95	46.0	3	7	68	0.00	29.871 
17:50	47.6	47.6	47.6	95	46.2	3	7	90	0.00	29.862 
17:55	47.7	46.2	47.7	95	46.3	4	10	112	0.00	29.856 
18:00	47.9	46.4	47.9	95	46.5	4	10	90	0.00	29.851 
18:05	48.0	46.6	48.0	95	46.6	4	10	90	0.00	29.847 
18:10	48.2	46.8	48.2	94	46.6	4	10	90	0.00	29.843 
18:15	48.2	46.8	48.2	94	46.6	4	10	90	0.00	29.838 
18:20	48.3	48.3	48.3	94	46.7	3	7	90	0.00	29.835 
18:25	48.3	48.3	48.3	94	46.7	3	7	90	0.00	29.833 
18:30	48.3	46.9	48.3	94	46.7	4	9	90	0.00	29.829 
18:35	48.3	48.3	48.3	94	46.7	3	7	90	0.00	29.828 
18:40	48.5	48.5	48.5	93	46.6	3	10	90	0.00	29.825 
18:45	48.5	48.5	48.5	93	46.6	3	9	90	0.00	29.820 
18:50	48.6	47.3	48.6	93	46.7	4	10	68	0.00	29.815 
18:55	48.6	48.6	48.6	93	46.7	3	9	90	0.00	29.809 
19:00	48.6	48.6	48.6	93	46.7	2	8	112	0.00	29.809 
19:05	48.8	48.8	48.8	93	46.9	3	7	90	0.00	29.808 
19:10	48.9	48.9	48.9	93	47.0	3	9	90	0.00	29.806 
19:15	49.1	49.1	49.1	93	47.2	3	8	90	0.00	29.800 
19:20	49.2	49.2	49.2	92	47.0	3	6	112	0.00	29.797 
19:25	49.2	49.2	49.2	92	47.0	3	5	112	0.00	29.796 
19:30	49.4	49.4	49.4	92	47.2	3	13	90	0.00	29.794 
19:35	49.5	49.5	49.5	92	47.3	3	10	112	0.00	29.793 
19:40	49.8	48.0	49.8	92	47.6	5	11	90	0.00	29.790 
19:45	49.8	49.8	49.8	92	47.6	3	9	90	0.00	29.778 
19:50	49.9	49.9	49.9	92	47.7	3	7	135	0.00	29.779 
19:55	49.9	49.9	49.9	92	47.7	3	10	90	0.00	29.777 
20:00	50.1	50.1	50.1	92	47.9	5	11	90	0.00	29.772 
20:05	50.1	50.1	50.1	91	47.6	4	11	90	0.00	29.767 
20:10	50.2	50.2	50.2	91	47.7	3	9	90	0.00	29.763 
20:15	50.4	50.4	50.4	91	47.9	4	11	90	0.00	29.761 
20:20	50.4	50.4	50.4	91	47.9	4	9	90	0.00	29.758 
20:25	50.4	50.4	50.4	91	47.9	3	8	90	0.00	29.753 
20:30	50.5	50.5	50.5	91	48.0	4	11	90	0.00	29.746 
20:35	50.5	50.5	50.5	91	48.0	3	12	90	0.00	29.743 
20:40	50.7	50.7	50.7	91	48.2	3	12	90	0.00	29.739 
20:45	50.8	50.8	50.8	91	48.3	4	11	90	0.00	29.733 
20:50	51.0	51.0	51.0	90	48.2	5	9	90	0.00	29.728 
20:55	51.3	51.3	51.3	90	48.5	5	11	112	0.00	29.726 
21:00	51.6	51.6	51.6	89	48.5	4	11	90	0.00	29.714 
21:05	51.7	51.7	51.7	88	48.3	4	11	90	0.00	29.710 
21:10	52.0	52.0	52.0	88	48.6	5	11	90	0.00	29.703 
21:15	52.2	52.2	52.2	87	48.4	5	10	90	0.00	29.695 
21:20	52.5	52.5	52.5	86	48.4	5	11	90	0.00	29.694 
21:25	52.8	52.8	52.8	86	48.7	5	11	90	0.00	29.693 
21:30	53.2	53.2	53.2	85	48.8	6	13	90	0.00	29.685 
21:35	53.3	53.3	53.3	84	48.6	5	14	90	0.00	29.680 
21:40	53.5	53.5	53.5	84	48.8	6	13	112	0.00	29.676 
21:45	53.6	53.6	53.6	83	48.6	5	12	90	0.00	29.672 
21:50	53.8	53.8	53.8	83	48.8	5	14	90	0.00	29.666 
21:55	54.1	54.1	54.1	82	48.7	5	12	90	0.00	29.661 
22:00	54.2	54.2	54.2	81	48.5	4	12	90	0.00	29.656 
22:05	54.4	54.4	54.4	81	48.7	5	15	90	0.00	29.648 
22:10	54.4	54.4	54.4	81	48.7	5	11	90	0.00	29.643 
22:15	54.2	54.2	54.2	81	48.5	4	12	90	0.00	29.637 
22:20	54.1	54.1	54.1	81	48.4	5	12	90	0.00	29.630 
22:25	54.1	54.1	54.1	81	48.4	4	11	90	0.00	29.629 
22:30	54.1	54.1	54.1	81	48.4	5	11	90	0.00	29.627 
22:35	54.1	54.1	54.1	81	48.4	5	12	90	0.00	29.615 
22:40	54.1	54.1	54.1	81	48.4	5	14	90	0.00	29.615 
22:45	54.1	54.1	54.1	81	48.4	6	14	90	0.00	29.612 
22:50	54.1	54.1	54.1	81	48.4	4	9	90	0.00	29.609 
22:55	54.1	54.1	54.1	81	48.4	5	18	90	0.00	29.598 
23:00	54.2	54.2	54.2	81	48.5	6	12	90	0.00	29.597 
23:05	54.2	54.2	54.2	81	48.5	5	12	90	0.00	29.591 
23:10	54.2	54.2	54.2	81	48.5	5	13	90	0.00	29.587 
23:15	54.5	54.5	54.5	80	48.5	5	11	112	0.00	29.580 
23:20	54.7	54.7	54.7	80	48.7	5	13	90	0.00	29.580 
23:25	54.8	54.8	54.8	80	48.7	5	11	90	0.00	29.577 
23:30	54.7	54.7	54.7	81	49.0	4	10	90	0.01	29.576 
23:35	54.4	54.4	54.4	83	49.3	4	15	90	0.00	29.576 
23:40	54.4	54.4	54.4	83	49.3	5	15	112	0.00	29.568 
23:45	54.4	54.4	54.4	82	49.0	5	12	90	0.00	29.561 
23:50	54.5	54.5	54.5	82	49.1	4	12	90	0.00	29.561 
23:55	54.8	54.8	54.8	81	49.1	5	14	112	0.00	29.558 

CoCoRaHS
IN-AL-39
A2 Web Hosting
Creative Commons License
GoDaddy
search engine by freefind advanced

loaded 2018-11-20 15:28:48 • last modified 2010-11-18 10:43:29
Privacy PolicyDisclaimer
• wx.awcolley.com is powered by PmWiki v.2002016 •
• all content (unless otherwise noted) © 2018 A W Colley